Time;durP1;ratioP1;P1;durP2;ratioP2;P2;SDS_P1;SDS_P2;PMS_P1;PMS_P2;Temp;Humidity;BMP_temperature;BMP_pressure;BME280_temperature;BME280_humidity;BME280_pressure;Samples;Min_cycle;Max_cycle;Signal;HPM_P1;HPM_P2
2022/12/06 05:02:15;;;;;;;26.00;14.50;;;5.00;99.90;;;4.54;nan;98257.03;5122074;23;21046;-75
2022/12/06 05:04:43;;;;;;;26.83;15.83;;;5.00;99.90;;;4.52;nan;98255.25;4909220;29;20906;-75
2022/12/06 05:07:11;;;;;;;29.93;16.43;;;5.00;99.90;;;4.53;nan;98250.22;4908968;29;20462;-75
2022/12/06 05:09:38;;;;;;;21.53;14.60;;;5.00;99.90;;;4.57;nan;98252.06;4909174;29;20609;-75
2022/12/06 05:12:06;;;;;;;26.00;16.70;;;5.00;99.90;;;4.58;nan;98247.84;4908211;29;20487;-75
2022/12/06 05:14:33;;;;;;;25.63;15.77;;;5.00;99.90;;;4.48;nan;98248.25;4908854;29;20510;-75
2022/12/06 05:17:00;;;;;;;23.63;15.10;;;5.00;99.90;;;4.40;nan;98245.41;4908825;29;20771;-75
2022/12/06 05:19:28;;;;;;;27.63;16.20;;;4.90;99.90;;;4.45;nan;98251.56;4907940;29;20455;-75
2022/12/06 05:21:55;;;;;;;27.23;16.70;;;4.90;99.90;;;4.50;nan;98250.09;4908191;29;20475;-75
2022/12/06 05:24:22;;;;;;;25.67;15.53;;;5.00;99.90;;;4.56;nan;98252.03;4908504;29;20466;-75
2022/12/06 05:26:49;;;;;;;30.73;17.53;;;5.00;99.90;;;4.52;nan;98250.16;4908777;29;20474;-75
2022/12/06 05:29:16;;;;;;;27.80;17.80;;;5.00;99.90;;;4.43;nan;98247.22;4908608;29;20859;-75
2022/12/06 05:31:43;;;;;;;32.80;21.50;;;5.00;99.90;;;4.32;nan;98254.38;4907682;29;21182;-75
2022/12/06 05:34:10;;;;;;;31.53;19.07;;;4.90;99.90;;;4.33;nan;98246.81;4908737;29;20459;-67
2022/12/06 05:36:39;;;;;;;29.10;17.90;;;4.90;99.90;;;4.31;nan;98255.19;4908743;29;20456;-66
2022/12/06 05:39:06;;;;;;;27.77;17.87;;;4.80;99.90;;;4.32;nan;98260.31;4908671;29;20455;-76
2022/12/06 05:41:33;;;;;;;28.23;17.83;;;4.80;99.90;;;4.43;nan;98247.22;4908410;29;20679;-76
2022/12/06 05:43:59;;;;;;;25.83;16.50;;;4.90;99.90;;;4.51;nan;98250.97;4908373;29;20558;-77
2022/12/06 05:46:26;;;;;;;29.87;18.23;;;4.90;99.90;;;4.49;nan;98248.31;4908688;29;20470;-77
2022/12/06 05:48:53;;;;;;;30.50;18.80;;;5.00;99.90;;;4.43;nan;98255.72;4908949;29;20467;-78
2022/12/06 05:51:20;;;;;;;27.50;18.10;;;4.90;99.90;;;4.41;nan;98247.16;4908692;29;20793;-77
2022/12/06 05:53:49;;;;;;;30.27;18.03;;;4.90;99.90;;;4.29;nan;98252.56;4908412;29;20978;-78
2022/12/06 05:56:16;;;;;;;31.17;18.83;;;4.90;99.90;;;4.32;nan;98260.31;4913774;29;21129;-77
2022/12/06 05:58:44;;;;;;;29.90;18.20;;;4.80;99.90;;;4.29;nan;98255.13;4913569;29;20829;-77
2022/12/06 06:01:11;;;;;;;32.50;18.87;;;4.80;99.90;;;4.22;nan;98260.72;4913185;29;20944;-76
2022/12/06 06:03:38;;;;;;;30.77;19.77;;;4.80;99.90;;;4.24;nan;98254.03;4912915;29;20495;-77
2022/12/06 06:06:06;;;;;;;34.30;20.40;;;4.80;99.90;;;4.21;nan;98250.47;4913262;29;20459;-77
2022/12/06 06:08:33;;;;;;;33.73;19.70;;;4.70;99.90;;;4.26;nan;98261.72;4913401;29;20466;-77
2022/12/06 06:11:02;;;;;;;34.13;20.13;;;4.80;99.90;;;4.28;nan;98262.66;4913117;29;20586;-77
2022/12/06 06:13:29;;;;;;;33.20;18.40;;;4.80;99.90;;;4.14;nan;98266.25;4912399;29;20555;-77
2022/12/06 06:15:56;;;;;;;35.60;23.75;;;4.80;99.90;;;3.99;nan;98267.31;4913053;29;20856;-78
2022/12/06 06:18:23;;;;;;;33.43;21.37;;;4.80;99.90;;;4.11;nan;98273.75;4913562;29;20231;-77
2022/12/06 06:20:52;;;;;;;39.47;21.53;;;4.80;99.90;;;4.06;nan;98271.00;4913655;29;20485;-77
2022/12/06 06:23:21;;;;;;;33.27;20.37;;;4.80;99.90;;;3.99;nan;98274.09;4912369;29;20839;-76
2022/12/06 06:25:48;;;;;;;30.13;18.07;;;4.70;99.90;;;4.02;nan;98266.59;4911907;29;20477;-77
2022/12/06 06:28:17;;;;;;;31.93;19.90;;;4.70;99.90;;;4.13;nan;98267.94;4913895;29;20451;-77
2022/12/06 06:30:45;;;;;;;37.63;20.87;;;4.70;99.90;;;4.26;nan;98266.81;4913917;29;20479;-77
2022/12/06 06:33:12;;;;;;;37.67;22.60;;;4.70;99.90;;;4.33;nan;98261.19;4912771;29;20467;-76
2022/12/06 06:35:40;;;;;;;38.57;19.67;;;4.80;99.90;;;4.39;nan;98255.50;4913118;29;20498;-78
2022/12/06 06:38:07;;;;;;;35.97;20.20;;;4.90;99.90;;;4.42;nan;98255.66;4912081;29;20466;-78
2022/12/06 06:40:35;;;;;;;30.93;18.77;;;4.90;99.90;;;4.50;nan;98250.09;4912661;29;20485;-80
2022/12/06 06:43:16;;;;;;;31.87;19.77;;;4.90;99.90;;;4.54;nan;98248.53;4912028;29;20462;-76
2022/12/06 06:45:45;;;;;;;29.30;19.33;;;5.00;99.90;;;4.60;nan;98257.31;4912366;29;20473;-77
2022/12/06 06:48:13;;;;;;;29.53;19.50;;;5.00;99.90;;;4.65;nan;98254.97;4912450;29;20459;-77
2022/12/06 06:50:40;;;;;;;34.33;19.87;;;5.10;99.90;;;4.70;nan;98252.59;4912492;29;21010;-77
2022/12/06 06:53:07;;;;;;;31.90;18.60;;;5.10;99.90;;;4.67;nan;98258.44;4912049;29;20473;-77
2022/12/06 06:55:36;;;;;;;28.33;18.30;;;5.10;99.90;;;4.64;nan;98255.78;4910818;29;20501;-77
2022/12/06 06:58:05;;;;;;;33.33;19.07;;;5.10;99.90;;;4.71;nan;98260.34;4911508;29;20463;-77
2022/12/06 07:00:33;;;;;;;29.63;19.00;;;5.10;99.90;;;4.78;nan;98264.00;4911654;29;20495;-76
2022/12/06 07:03:02;;;;;;;31.80;20.00;;;5.20;99.90;;;4.79;nan;98261.50;4910969;29;20523;-78
2022/12/06 07:05:29;;;;;;;25.00;17.27;;;5.20;99.90;;;4.77;nan;98263.13;4911201;29;20459;-75
2022/12/06 07:07:56;;;;;;;26.80;18.67;;;5.20;99.90;;;4.81;nan;98262.47;4910613;29;20475;-76
2022/12/06 07:10:26;;;;;;;31.00;18.17;;;5.20;99.90;;;4.81;nan;98270.09;4910846;29;20463;-77
2022/12/06 07:12:54;;;;;;;23.60;15.73;;;5.20;99.90;;;4.72;nan;98269.72;4909162;29;21346;-80
2022/12/06 07:15:21;;;;;;;30.30;17.50;;;5.20;99.90;;;4.68;nan;98269.50;4910418;29;20538;-75
2022/12/06 07:17:50;;;;;;;29.10;17.17;;;5.20;99.90;;;4.69;nan;98267.00;4900028;29;20469;-75
2022/12/06 07:20:18;;;;;;;29.73;18.40;;;5.20;99.90;;;4.67;nan;98267.75;4910659;29;20964;-76
2022/12/06 07:22:46;;;;;;;29.70;18.73;;;5.10;99.90;;;4.70;nan;98271.31;4910481;29;20463;-76
2022/12/06 07:25:13;;;;;;;28.73;17.47;;;5.20;99.90;;;4.71;nan;98265.41;4921572;29;20451;-77
2022/12/06 07:27:40;;;;;;;28.70;18.20;;;5.20;99.90;;;4.72;nan;98262.06;4930168;29;20455;-77
2022/12/06 07:30:09;;;;;;;29.27;18.47;;;5.20;99.90;;;4.69;nan;98269.56;4929768;29;20546;-77
2022/12/06 07:32:36;;;;;;;27.67;18.30;;;5.20;99.90;;;4.67;nan;98262.66;4910958;29;20479;-77
2022/12/06 07:35:04;;;;;;;31.17;19.73;;;5.10;99.90;;;4.56;nan;98263.06;4910174;29;21019;-77
2022/12/06 07:37:32;;;;;;;32.40;20.27;;;5.10;99.90;;;4.53;nan;98262.94;4910666;29;21317;-77
2022/12/06 07:40:00;;;;;;;35.40;21.20;;;5.10;99.90;;;4.57;nan;98261.38;4910091;29;20463;-77
2022/12/06 07:45:15;;;;;;;31.97;19.50;;;5.00;99.90;;;4.51;nan;98263.69;4910763;29;20458;-77
2022/12/06 07:47:44;;;;;;;30.83;19.13;;;5.00;99.90;;;4.61;nan;98261.59;4910249;29;20931;-77
2022/12/06 07:50:15;;;;;;;28.80;18.00;;;5.10;99.90;;;4.58;nan;98261.44;4910669;29;20971;-77
2022/12/06 07:52:44;;;;;;;28.93;18.27;;;5.10;99.90;;;4.57;nan;98261.38;4908575;29;20463;-77
2022/12/06 07:55:12;;;;;;;27.88;18.20;;;5.10;99.90;;;4.64;nan;98260.88;4910263;29;20473;-77
2022/12/06 07:57:39;;;;;;;28.33;18.20;;;5.20;99.90;;;4.71;nan;98256.91;4910891;29;20227;-77
2022/12/06 08:00:10;;;;;;;28.93;17.40;;;5.20;99.90;;;4.79;nan;98261.50;4910609;29;20454;-77
2022/12/06 08:02:37;;;;;;;25.97;16.83;;;5.20;99.90;;;4.82;nan;98258.25;4909870;29;20494;-77
2022/12/06 08:05:05;;;;;;;24.73;16.90;;;5.30;99.90;;;4.82;nan;98260.78;4911205;29;20459;-77
2022/12/06 08:07:32;;;;;;;27.87;17.00;;;5.30;99.90;;;4.83;nan;98262.53;4911320;29;20466;-77
2022/12/06 08:10:00;;;;;;;31.80;18.50;;;5.30;99.90;;;4.77;nan;98263.13;4910687;29;20830;-77
2022/12/06 08:12:30;;;;;;;41.90;18.30;;;5.30;99.90;;;4.74;nan;98257.03;4909959;29;20479;-77
2022/12/06 08:14:57;;;;;;;23.43;15.60;;;5.30;99.90;;;4.65;nan;98260.06;4910721;29;20550;-77
2022/12/06 08:17:25;;;;;;;27.50;17.53;;;5.20;99.90;;;4.53;nan;98265.50;4910484;29;20473;-77
2022/12/06 08:19:52;;;;;;;23.80;15.93;;;5.10;99.90;;;4.58;nan;98263.13;4911132;29;20463;-76
2022/12/06 08:28:33;;;;;;;26.97;17.90;;;5.10;99.90;;;4.64;nan;98271.03;4886685;29;20508;-76
2022/12/06 08:31:06;;;;;;;32.20;18.90;;;5.10;99.90;;;4.60;nan;98269.19;4889393;29;20459;-76
2022/12/06 08:33:34;;;;;;;30.60;19.27;;;5.10;99.90;;;4.60;nan;98269.19;4889877;29;20448;-77
2022/12/06 08:36:01;;;;;;;30.93;18.60;;;5.10;99.90;;;4.51;nan;98267.09;4888672;29;20492;-77
2022/12/06 08:38:29;;;;;;;24.97;16.90;;;5.10;99.90;;;4.63;nan;98264.22;4890047;29;20449;-76
2022/12/06 08:40:56;;;;;;;32.13;20.13;;;5.10;99.90;;;4.69;nan;98269.56;4889494;29;20880;-76
2022/12/06 08:43:22;;;;;;;28.50;18.10;;;5.10;99.90;;;4.76;nan;98266.47;4891958;29;20464;-76
2022/12/06 08:45:52;;;;;;;29.47;17.87;;;5.20;99.90;;;4.80;nan;98267.47;4891456;29;20452;-76
2022/12/06 08:48:20;;;;;;;26.43;17.03;;;5.20;99.90;;;4.75;nan;98268.97;4891548;29;20484;-78
2022/12/06 08:50:47;;;;;;;25.47;16.60;;;5.20;99.90;;;4.77;nan;98262.25;4889689;29;20464;-77
2022/12/06 08:53:14;;;;;;;27.73;16.07;;;5.30;99.90;;;4.82;nan;98265.88;4891706;29;20474;-77
2022/12/06 08:55:41;;;;;;;29.00;16.17;;;5.30;99.90;;;4.83;nan;98268.50;4892247;29;20506;-77
2022/12/06 08:58:08;;;;;;;24.97;16.00;;;5.30;99.90;;;4.81;nan;98272.66;4891516;29;20488;-77
2022/12/06 09:00:35;;;;;;;27.93;15.50;;;5.30;99.90;;;4.83;nan;98272.72;4891986;29;20464;-77
2022/12/06 09:03:03;;;;;;;23.60;15.50;;;5.30;99.90;;;4.83;nan;98271.03;4889734;29;20468;-77
2022/12/06 09:05:30;;;;;;;28.90;16.23;;;5.30;99.90;;;4.70;nan;98276.41;4891571;29;20460;-77
2022/12/06 09:07:57;;;;;;;26.17;15.93;;;5.30;99.90;;;4.66;nan;98268.56;4890994;29;20472;-77
2022/12/06 09:10:24;;;;;;;22.10;15.37;;;5.20;99.90;;;4.61;nan;98270.91;4891665;29;21249;-77
2022/12/06 09:12:51;;;;;;;22.10;15.80;;;5.20;99.90;;;4.55;nan;98275.72;4891153;29;20460;-77
2022/12/06 09:15:18;;;;;;;23.17;16.67;;;5.10;99.90;;;4.48;nan;98266.06;4891311;29;20487;-66
2022/12/06 09:17:45;;;;;;;28.10;16.70;;;5.10;99.90;;;4.29;nan;98275.47;4890167;29;20588;-77
2022/12/06 09:20:16;;;;;;;27.60;16.90;;;5.00;99.90;;;4.27;nan;98277.03;4892910;29;20460;-79
2022/12/06 09:22:44;;;;;;;25.10;17.07;;;4.90;99.90;;;4.25;nan;98276.13;4891193;29;20575;-79
2022/12/06 09:25:11;;;;;;;33.60;19.40;;;4.80;99.90;;;4.25;nan;98276.13;4890700;29;20476;-79
2022/12/06 09:27:39;;;;;;;31.20;18.60;;;4.80;99.90;;;4.32;nan;98282.34;4890013;29;21031;-79
2022/12/06 09:30:08;;;;;;;30.70;18.00;;;4.80;99.90;;;4.26;nan;98274.44;4893450;29;20464;-79
2022/12/06 09:32:35;;;;;;;27.87;18.23;;;4.90;99.90;;;4.24;nan;98276.91;4893011;29;20456;-78
2022/12/06 09:35:02;;;;;;;28.57;19.23;;;4.80;99.90;;;4.21;nan;98271.69;4893698;29;20551;-79
2022/12/06 09:37:32;;;;;;;25.57;17.87;;;4.80;99.90;;;4.05;nan;98274.34;4893187;29;21213;-79
2022/12/06 09:40:12;;;;;;;27.10;16.50;;;4.70;99.90;;;3.95;nan;98279.81;4893782;29;20444;-79
2022/12/06 09:43:03;;;;;;;29.53;17.07;;;4.60;99.90;;;3.97;nan;98279.06;4893441;29;20566;-79
2022/12/06 09:46:06;;;;;;;31.13;16.83;;;4.60;99.90;;;3.99;nan;98287.66;4893733;29;20540;-78
2022/12/06 09:49:28;;;;;;;28.40;17.23;;;4.60;99.90;;;3.86;nan;98279.38;4893861;29;20464;-79
2022/12/06 09:52:51;;;;;;;30.83;18.20;;;4.50;99.90;;;3.92;nan;98270.38;4834955;29;20438;-78
2022/12/06 09:55:41;;;;;;;32.43;16.67;;;4.50;99.90;;;3.95;nan;98274.72;4872390;29;20496;-79
2022/12/06 09:58:23;;;;;;;27.87;16.90;;;4.50;99.90;;;3.93;nan;98271.25;4892933;29;20853;-76
2022/12/06 10:01:10;;;;;;;26.27;15.53;;;4.50;99.90;;;3.92;nan;98265.28;4894012;29;20447;-77
2022/12/06 10:04:21;;;;;;;30.20;15.80;;;4.50;99.90;;;3.91;nan;98271.19;4894950;29;20448;-77
2022/12/06 10:07:09;;;;;;;27.40;15.43;;;4.50;99.90;;;3.85;nan;98264.94;4893717;29;20478;-76
2022/12/06 10:09:58;;;;;;;29.47;16.20;;;4.50;99.90;;;3.93;nan;98266.16;4894346;29;20925;-77
2022/12/06 10:12:55;;;;;;;27.60;14.93;;;4.50;99.90;;;3.96;nan;98261.19;4894436;29;20456;-78
2022/12/06 10:15:44;;;;;;;25.20;15.00;;;4.50;99.90;;;3.93;nan;98261.94;4894338;29;20973;-78
2022/12/06 10:18:34;;;;;;;29.43;16.00;;;4.60;99.90;;;3.88;nan;98255.78;4893886;29;20549;-78
2022/12/06 10:21:12;;;;;;;28.50;14.83;;;4.50;99.90;;;4.02;nan;98261.50;4894132;29;20474;-77
2022/12/06 10:24:05;;;;;;;27.83;16.50;;;4.60;99.90;;;4.04;nan;98260.75;4893665;29;20464;-77
2022/12/06 10:26:47;;;;;;;26.33;15.50;;;4.60;99.90;;;4.06;nan;98260.81;4892983;29;20890;-78
2022/12/06 10:29:21;;;;;;;25.45;16.70;;;4.60;99.90;;;4.17;nan;98259.63;4892968;29;20456;-77
2022/12/06 10:31:57;;;;;;;29.10;16.07;;;4.80;99.90;;;4.21;nan;98260.66;4894614;29;20200;-77
2022/12/06 10:34:44;;;;;;;27.10;14.67;;;4.90;99.90;;;4.11;nan;98272.09;4893878;29;20913;-80
2022/12/06 10:37:32;;;;;;;28.70;15.20;;;4.80;99.90;;;4.03;nan;98271.72;4892583;29;20492;-77
2022/12/06 10:40:12;;;;;;;25.30;14.83;;;4.80;99.90;;;4.04;nan;98265.84;4894003;29;20220;-78
2022/12/06 10:42:47;;;;;;;24.40;14.80;;;4.70;99.90;;;3.90;nan;98261.81;4894251;29;20464;-77
2022/12/06 10:48:24;;;;;;;26.27;15.13;;;4.50;99.90;;;3.86;nan;98252.28;4893421;29;20467;-76
2022/12/06 10:51:03;;;;;;;26.33;13.80;;;4.50;99.90;;;3.82;nan;98252.09;4894105;29;20456;-76
2022/12/06 10:53:40;;;;;;;23.00;13.30;;;4.50;99.90;;;3.89;nan;98247.34;4893986;29;20448;-76
2022/12/06 10:56:16;;;;;;;22.50;11.30;;;4.50;99.90;;;3.80;nan;98244.38;4893306;29;20541;-75
2022/12/06 10:58:54;;;;;;;19.87;11.30;;;4.40;99.90;;;3.80;nan;98252.00;4894014;29;20467;-76
2022/12/06 11:01:27;;;;;;;22.00;11.80;;;4.50;99.90;;;3.89;nan;98247.34;4894028;29;20450;-76
2022/12/06 11:04:01;;;;;;;18.63;11.53;;;4.50;99.90;;;3.91;nan;98245.75;4893902;29;20905;-76
2022/12/06 11:06:37;;;;;;;17.77;12.30;;;4.50;99.90;;;3.91;nan;98247.41;4893502;29;20475;-76
2022/12/06 11:09:19;;;;;;;17.67;10.50;;;4.50;99.90;;;3.89;nan;98244.81;4894007;29;20467;-76
2022/12/06 11:11:49;;;;;;;18.50;11.47;;;4.50;99.90;;;3.94;nan;98245.88;4894135;29;20452;-76
2022/12/06 11:14:25;;;;;;;16.70;10.40;;;4.50;99.90;;;3.87;nan;98245.53;4894062;29;20467;-75
2022/12/06 11:16:58;;;;;;;20.03;11.27;;;4.50;99.90;;;3.89;nan;98247.34;4892956;29;20503;-76
2022/12/06 11:19:35;;;;;;;16.93;10.87;;;4.50;99.90;;;3.96;nan;98240.84;4894070;29;20453;-76
2022/12/06 11:22:19;;;;;;;18.40;12.17;;;4.50;99.90;;;3.89;nan;98244.81;4893987;29;20812;-77
2022/12/06 11:24:58;;;;;;;19.17;11.27;;;4.50;99.90;;;3.89;nan;98232.09;4893130;29;20448;-75
2022/12/06 11:27:33;;;;;;;23.47;12.77;;;4.50;99.90;;;3.94;nan;98237.38;4892589;29;20476;-76
2022/12/06 11:30:12;;;;;;;24.90;14.43;;;4.50;99.90;;;3.90;nan;98235.50;4893427;29;20462;-77
2022/12/06 11:32:41;;;;;;;24.27;12.80;;;4.50;99.90;;;3.86;nan;98239.56;4893005;29;20456;-76
2022/12/06 11:35:14;;;;;;;29.57;16.77;;;4.50;99.90;;;3.82;nan;98247.00;4892498;29;20452;-66
2022/12/06 11:37:42;;;;;;;21.20;14.33;;;4.40;99.90;;;3.86;nan;98243.78;4890437;29;20500;-66
2022/12/06 11:40:25;;;;;;;17.57;11.80;;;4.40;99.90;;;3.89;nan;98241.41;4891909;29;20460;-66
2022/12/06 11:42:53;;;;;;;21.40;14.00;;;4.50;99.90;;;3.84;nan;98238.63;4891878;29;20931;-76
2022/12/06 11:45:26;;;;;;;15.90;11.00;;;4.50;99.90;;;3.88;nan;98244.72;4891812;29;20460;-76
2022/12/06 11:47:54;;;;;;;14.00;8.77;;;4.50;99.90;;;3.82;nan;98242.78;4890898;29;20472;-76
2022/12/06 11:50:25;;;;;;;12.83;8.40;;;4.40;99.90;;;3.73;nan;98248.31;4891859;29;20503;-76
2022/12/06 11:53:01;;;;;;;13.63;8.20;;;4.40;99.90;;;3.65;nan;98246.19;4891157;29;20468;-75
2022/12/06 11:55:37;;;;;;;11.70;8.10;;;4.30;99.90;;;3.67;nan;98242.91;4891506;29;20451;-76
2022/12/06 11:58:16;;;;;;;13.60;8.40;;;4.30;99.90;;;3.71;nan;98238.88;4889312;29;20483;-76
2022/12/06 12:01:00;;;;;;;13.23;9.03;;;4.30;99.90;;;3.73;nan;98243.22;4891462;29;20452;-78
2022/12/06 12:03:30;;;;;;;16.63;9.50;;;4.30;99.90;;;3.68;nan;98238.75;4891591;29;20456;-76
2022/12/06 12:06:21;;;;;;;14.20;8.73;;;4.30;99.90;;;3.67;nan;98236.97;4891189;29;20437;-77
2022/12/06 12:08:58;;;;;;;12.03;8.17;;;4.30;99.90;;;3.74;nan;98239.88;4891124;29;20459;-77
2022/12/06 12:11:30;;;;;;;14.50;9.30;;;4.30;99.90;;;3.83;nan;98233.47;4891203;29;20448;-77
2022/12/06 12:14:02;;;;;;;15.23;9.97;;;4.40;99.90;;;3.91;nan;98222.88;4891402;29;20452;-77
2022/12/06 12:16:37;;;;;;;13.13;8.93;;;4.40;99.90;;;3.93;nan;98226.34;4889967;29;21050;-77
2022/12/06 12:19:19;;;;;;;13.50;9.37;;;4.50;99.90;;;3.80;nan;98215.56;4891482;29;20443;-77
2022/12/06 12:21:46;;;;;;;13.33;8.23;;;4.50;99.90;;;3.80;nan;98218.09;4890805;29;20448;-81
2022/12/06 12:24:49;;;;;;;17.90;8.30;;;4.40;99.90;;;3.79;nan;98217.22;4890393;29;21128;-77
2022/12/06 12:27:42;;;;;;;15.17;9.17;;;4.40;99.90;;;3.66;nan;98215.75;4889739;29;20483;-78
2022/12/06 12:30:34;;;;;;;13.70;8.97;;;4.40;99.90;;;3.70;nan;98221.88;4890092;29;20463;-78
2022/12/06 12:33:18;;;;;;;16.70;9.40;;;4.30;99.90;;;3.63;nan;98218.19;4889615;29;21311;-77
2022/12/06 12:35:48;;;;;;;14.93;9.10;;;4.30;99.90;;;3.69;nan;98226.09;4889595;29;20823;-77
2022/12/06 12:38:25;;;;;;;11.20;8.00;;;4.30;99.90;;;3.71;nan;98227.03;4889857;29;20472;-77
2022/12/06 12:40:56;;;;;;;10.87;8.00;;;4.30;99.90;;;3.61;nan;98232.50;4890679;29;20476;-78
2022/12/06 12:43:26;;;;;;;13.30;8.13;;;4.30;99.90;;;3.66;nan;98222.53;4890488;29;20436;-78
2022/12/06 12:46:14;;;;;;;10.83;7.67;;;4.30;99.90;;;3.64;nan;98225.00;4891000;29;20432;-80
2022/12/06 12:48:45;;;;;;;20.70;7.77;;;4.30;99.90;;;3.67;nan;98226.81;4892112;29;20456;-77
2022/12/06 12:51:30;;;;;;;9.30;6.90;;;4.30;99.90;;;3.75;nan;98220.41;4890860;29;20548;-77
2022/12/06 12:54:01;;;;;;;10.90;7.30;;;4.30;99.90;;;3.75;nan;98220.41;4890939;29;20450;-77
2022/12/06 12:56:33;;;;;;;9.90;7.47;;;4.30;99.90;;;3.78;nan;98222.22;4889981;29;21048;-77
2022/12/06 12:59:04;;;;;;;8.20;6.53;;;4.30;99.90;;;3.72;nan;98220.28;4891065;29;20440;-78
2022/12/06 13:01:46;;;;;;;10.73;8.20;;;4.40;99.90;;;3.72;nan;98220.28;4889941;29;20464;-77
2022/12/06 13:04:29;;;;;;;10.80;7.63;;;4.40;99.90;;;3.72;nan;98225.38;4893040;29;20428;-77
2022/12/06 13:07:02;;;;;;;10.93;7.43;;;4.30;99.90;;;3.77;nan;98223.88;4893608;29;20539;-77
2022/12/06 13:09:43;;;;;;;10.87;7.00;;;4.30;99.90;;;3.75;nan;98217.88;4893926;29;20436;-77
2022/12/06 13:12:19;;;;;;;12.83;7.80;;;4.40;99.90;;;3.73;nan;98212.72;4893479;29;20455;-77
2022/12/06 13:14:53;;;;;;;10.30;7.20;;;4.40;99.90;;;3.63;nan;98222.38;4893864;29;20469;-77
2022/12/06 13:17:26;;;;;;;9.10;7.00;;;4.30;99.90;;;3.69;nan;98215.94;4892896;29;20499;-77
2022/12/06 13:19:55;;;;;;;7.90;6.63;;;4.30;99.90;;;3.71;nan;98209.25;4888295;29;20463;-77
2022/12/06 13:22:30;;;;;;;9.53;6.30;;;4.30;99.90;;;3.81;nan;98209.66;4884702;29;20814;-77
2022/12/06 13:25:03;;;;;;;9.33;6.73;;;4.30;99.90;;;3.72;nan;98210.97;4890940;29;20952;-77
2022/12/06 13:27:36;;;;;;;9.80;7.00;;;4.40;99.90;;;3.74;nan;98217.00;4876095;29;20482;-77
2022/12/06 13:30:13;;;;;;;10.10;7.20;;;4.40;99.90;;;3.78;nan;98206.97;4891938;29;20502;-77
2022/12/06 13:32:47;;;;;;;10.23;7.60;;;4.30;99.90;;;3.79;nan;98207.06;4894396;29;20454;-77
2022/12/06 13:35:27;;;;;;;11.00;6.97;;;4.40;99.90;;;3.80;nan;98213.88;4893852;29;20467;-77
2022/12/06 13:37:57;;;;;;;10.47;8.40;;;4.40;99.90;;;3.80;nan;98205.38;4893232;29;20500;-77
2022/12/06 13:40:48;;;;;;;11.03;7.97;;;4.40;99.90;;;3.93;nan;98207.66;4893195;29;20492;-77
2022/12/06 13:43:50;;;;;;;10.27;8.17;;;4.40;99.90;;;4.02;nan;98200.47;4893882;29;20467;-78
2022/12/06 13:46:33;;;;;;;16.13;8.60;;;4.50;99.90;;;3.93;nan;98206.00;4834577;29;20959;-76
2022/12/06 13:49:05;;;;;;;12.43;9.10;;;4.50;99.90;;;3.97;nan;98201.91;4890954;29;20797;-78
2022/12/06 13:51:48;;;;;;;14.80;9.60;;;4.50;99.90;;;4.09;nan;98192.31;4895841;29;20451;-83
2022/12/06 13:54:36;;;;;;;14.97;10.10;;;4.60;99.90;;;4.11;nan;98200.88;4895923;29;20452;-81
2022/12/06 13:57:28;;;;;;;12.80;8.30;;;4.60;99.90;;;3.92;nan;98204.25;4895198;29;20553;-81
2022/12/06 13:59:55;;;;;;;14.77;9.27;;;4.60;99.90;;;3.94;nan;98212.81;4895896;29;20464;-79
2022/12/06 14:02:53;;;;;;;14.50;8.80;;;4.50;99.90;;;3.90;nan;98210.09;4895719;29;20824;-78
2022/12/06 14:06:10;;;;;;;10.87;8.43;;;4.50;99.90;;;3.83;nan;98216.56;4895781;29;20455;-78
2022/12/06 14:08:42;;;;;;;11.17;8.00;;;4.50;99.90;;;3.81;nan;98207.13;4837419;29;20836;-80
2022/12/06 14:11:22;;;;;;;9.03;7.37;;;4.40;99.90;;;3.81;nan;98213.06;4883995;29;20478;-83
2022/12/06 14:14:02;;;;;;;10.93;8.70;;;4.40;99.90;;;3.78;nan;98218.03;4895473;29;20516;-85
2022/12/06 14:16:35;;;;;;;12.30;8.00;;;4.40;99.90;;;3.87;nan;98217.56;4894445;29;21003;-78
2022/12/06 14:19:14;;;;;;;13.80;8.97;;;4.40;99.90;;;3.78;nan;98214.59;4895696;29;20444;-79
2022/12/06 14:21:44;;;;;;;11.70;8.60;;;4.40;99.90;;;3.85;nan;98216.63;4895585;29;20447;-79
2022/12/06 14:24:30;;;;;;;11.20;8.30;;;4.40;99.90;;;3.83;nan;98219.09;4895295;29;20444;-78
2022/12/06 14:27:06;;;;;;;12.30;8.40;;;4.40;99.90;;;3.85;nan;98220.03;4894777;29;20819;-79
2022/12/06 14:29:33;;;;;;;11.60;8.70;;;4.40;99.90;;;3.84;nan;98220.84;4894980;29;20478;-81
2022/12/06 14:32:00;;;;;;;11.20;8.27;;;4.40;99.90;;;3.82;nan;98219.03;4895382;29;20460;-79
2022/12/06 14:34:30;;;;;;;14.03;8.37;;;4.40;99.90;;;3.84;nan;98225.91;4895101;29;20475;-79
2022/12/06 14:37:01;;;;;;;11.20;8.40;;;4.40;99.90;;;3.82;nan;98222.44;4894693;29;20878;-78
2022/12/06 14:39:32;;;;;;;24.17;11.90;;;4.40;99.90;;;3.87;nan;98220.09;4895126;29;20436;-78
2022/12/06 14:44:50;;;;;;;11.60;8.37;;;4.40;99.90;;;3.77;nan;98218.81;4894681;29;20523;-78
2022/12/06 14:47:22;;;;;;;13.40;8.90;;;4.40;99.90;;;3.82;nan;98221.56;4893896;29;20480;-79
2022/12/06 14:53:01;;;;;;;11.20;8.50;;;4.40;99.90;;;4.01;nan;98221.59;4894197;29;20491;-83
2022/12/06 14:55:33;;;;;;;12.60;8.63;;;4.50;99.90;;;4.04;nan;98224.28;4894769;29;20465;-78
2022/12/06 14:58:03;;;;;;;14.70;9.93;;;4.50;99.90;;;4.03;nan;98225.09;4893939;29;20876;-79
2022/12/06 15:00:38;;;;;;;12.40;9.90;;;4.50;99.90;;;3.81;nan;98219.84;4894790;29;20500;-78
2022/12/06 15:03:31;;;;;;;22.83;11.87;;;4.50;99.90;;;3.88;nan;98211.66;4894216;29;20939;-78
2022/12/06 15:06:16;;;;;;;19.27;12.50;;;4.50;99.90;;;3.92;nan;98216.09;4894357;29;20449;-78
2022/12/06 15:08:44;;;;;;;16.73;11.00;;;4.50;99.90;;;4.03;nan;98215.78;4894546;29;20462;-77
2022/12/06 15:14:20;;;;;;;15.33;11.03;;;4.50;99.90;;;3.88;nan;98217.66;4893453;29;20488;-81
2022/12/06 15:16:59;;;;;;;17.30;12.50;;;4.50;99.90;;;3.88;nan;98204.03;4892878;29;20484;-79
2022/12/06 15:19:28;;;;;;;18.13;12.33;;;4.50;99.90;;;3.88;nan;98211.66;4893429;29;20449;-82
2022/12/06 15:21:55;;;;;;;22.33;12.37;;;4.50;99.90;;;3.92;nan;98208.47;4893148;29;20979;-79
2022/12/06 15:24:24;;;;;;;16.43;12.40;;;4.50;99.90;;;3.94;nan;98214.50;4893107;29;20460;-81
2022/12/06 15:26:53;;;;;;;17.53;12.70;;;4.50;99.90;;;3.96;nan;98216.28;4892363;29;20468;-78
2022/12/06 15:29:20;;;;;;;18.27;12.50;;;4.50;99.90;;;3.93;nan;98220.38;4892428;29;20479;-81
2022/12/06 15:31:51;;;;;;;20.27;12.40;;;4.50;99.90;;;3.91;nan;98215.22;4893065;29;20456;-79
2022/12/06 15:34:25;;;;;;;15.83;12.10;;;4.50;99.90;;;3.98;nan;98208.72;4893145;29;20486;-79
2022/12/06 15:36:53;;;;;;;26.50;20.30;;;4.50;99.90;;;4.10;nan;98201.66;4892546;29;21035;-80
2022/12/06 15:39:20;;;;;;;20.50;15.13;;;4.60;99.90;;;4.09;nan;98212.66;4893269;29;20555;-80
2022/12/06 15:41:47;;;;;;;35.97;21.27;;;4.60;99.90;;;4.07;nan;98205.72;4894651;29;20456;-79
2022/12/06 15:44:19;;;;;;;40.80;25.20;;;4.60;99.90;;;4.18;nan;98207.94;4894020;29;20464;-79
2022/12/06 15:46:48;;;;;;;18.23;13.57;;;4.60;99.90;;;4.18;nan;98200.31;4892521;29;21309;-79
2022/12/06 15:49:17;;;;;;;16.87;11.70;;;4.70;99.90;;;4.10;nan;98196.59;4894468;29;21251;-80
2022/12/06 15:51:44;;;;;;;11.37;9.60;;;4.70;99.90;;;4.05;nan;98205.66;4894324;29;20551;-80
2022/12/06 15:54:17;;;;;;;14.33;11.30;;;4.60;99.90;;;3.88;nan;98204.94;4893862;29;20460;-80
2022/12/06 15:56:45;;;;;;;46.77;25.37;;;4.60;99.90;;;3.94;nan;98206.88;4892995;29;20570;-80
2022/12/06 15:59:12;;;;;;;15.60;12.20;;;4.50;99.90;;;3.92;nan;98208.47;4894066;29;20456;-80
2022/12/06 16:01:44;;;;;;;16.33;11.80;;;4.50;99.90;;;3.82;nan;98213.94;4892375;29;20458;-76
2022/12/06 16:04:15;;;;;;;14.83;10.83;;;4.50;99.90;;;3.80;nan;98216.44;4891228;29;20436;-76
2022/12/06 16:06:43;;;;;;;13.10;10.50;;;4.40;99.90;;;3.77;nan;98213.72;4890164;29;20567;-75
2022/12/06 16:09:11;;;;;;;14.60;11.77;;;4.40;99.90;;;3.86;nan;98216.69;4891151;29;20463;-77
2022/12/06 16:11:39;;;;;;;15.60;12.00;;;4.40;99.90;;;3.95;nan;98221.31;4891015;29;20975;-76
2022/12/06 16:14:06;;;;;;;17.37;11.70;;;4.50;99.90;;;3.99;nan;98228.31;4890948;29;20467;-76
2022/12/06 16:16:33;;;;;;;16.60;12.00;;;4.50;99.90;;;3.87;nan;98226.03;4890145;29;20575;-76
2022/12/06 16:19:02;;;;;;;15.50;11.47;;;4.50;99.90;;;3.89;nan;98227.00;4891580;29;20500;-76
2022/12/06 16:21:32;;;;;;;14.73;11.60;;;4.50;99.90;;;3.95;nan;98229.81;4890999;29;20452;-77
2022/12/06 16:24:00;;;;;;;14.90;10.57;;;4.50;99.90;;;3.85;nan;98231.88;4890945;29;20546;-76